createdAt,value
2023-01-22T00:01:25.384Z,99787.24
2023-01-22T00:03:55.068Z,99787.98
2023-01-22T00:06:23.905Z,99788.34
2023-01-22T00:09:24.874Z,99785.33
2023-01-22T00:11:52.589Z,99779.45
2023-01-22T00:14:26.518Z,99779.09
2023-01-22T00:17:29.748Z,99781.23
2023-01-22T00:19:57.137Z,99784.93
2023-01-22T00:22:24.429Z,99784.35
2023-01-22T00:24:52.466Z,99786.83
2023-01-22T00:28:01.368Z,99793.36
2023-01-22T00:30:39.501Z,99790.13
2023-01-22T00:33:38.364Z,99792.19
2023-01-22T00:36:10.542Z,99795.83
2023-01-22T00:43:24.952Z,99770.08
2023-01-22T00:49:30.757Z,99773.89
2023-01-22T00:52:05.735Z,99781.18
2023-01-22T00:54:38.946Z,99786.13
2023-01-22T00:57:15.993Z,99776.13
2023-01-22T00:59:59.114Z,99768.18
2023-01-22T01:02:27.397Z,99775.55
2023-01-22T01:04:56.859Z,99771.34
2023-01-22T01:07:24.181Z,99772.88
2023-01-22T01:09:51.469Z,99771.67
2023-01-22T01:12:20.255Z,99761.46
2023-01-22T01:14:47.502Z,99759.34
2023-01-22T01:17:24.911Z,99757.73
2023-01-22T01:21:10.229Z,99748.85
2023-01-22T01:23:43.155Z,99711.69
2023-01-22T01:26:13.110Z,99735.16
2023-01-22T01:31:26.629Z,99721.08
2023-01-22T01:33:57.703Z,99727.73
2023-01-22T01:36:46.445Z,99726.02
2023-01-22T01:39:12.597Z,99704.95
2023-01-22T01:41:39.856Z,99713.38
2023-01-22T01:44:17.412Z,99703.23
2023-01-22T01:46:48.186Z,99686.67
2023-01-22T01:49:40.903Z,99681.39
2023-01-22T01:52:12.598Z,99651.70
2023-01-22T01:54:41.014Z,99651.05
2023-01-22T01:57:13.115Z,99640.10
2023-01-22T01:59:40.419Z,99629.44
2023-01-22T02:02:07.674Z,99625.55
2023-01-22T02:04:35.036Z,99619.81
2023-01-22T02:07:04.173Z,99610.87
2023-01-22T02:09:32.375Z,99605.86
2023-01-22T02:11:59.644Z,99599.90
2023-01-22T02:14:39.825Z,99591.16
2023-01-22T02:17:17.050Z,99569.53
2023-01-22T02:19:44.636Z,99554.54
2023-01-22T02:22:16.271Z,99556.20
